Globetrotter — 9HFK9 — position and weather

sailwx.info

Track history (hours):
 
Tides and Currents Weather Stations Pressure Air Temp Water Temp Dewpoint Dewpoint Depression Visibility Wind Speed Wind Dir Waves Ship Positions

Globetrotter

Last reported at 2018-Aug-12 02:28 UTC. Time now 2018-Aug-21 03:56 UTC.
Position N 04°52' W 001°02'.
Warning: this ship's position is 9 days out of date.

Length 187 m; draft 6.4 m.

Type: Cargo ship. MMSI: 256911000.

Date/timePositionNaut miles runAvg speedWind from/ knotsBaromVisibWave heightAir tempDewpointWater temp
2018-Aug-12 02:28N 04°52' W 001°02'4 9.8
2018-Aug-12 02:00N 04°53' W 000°57'6 9.9
2018-Aug-12 01:25N 04°55' W 000°52'510.0
2018-Aug-12 00:55N 04°57' W 000°47'7 9.9
2018-Aug-12 00:15N 04°60' W 000°41'7 8.7
2018-Aug-11 23:25N 05°03' W 000°35'5 9.7
2018-Aug-11 22:54N 05°05' W 000°30'4 9.6
2018-Aug-11 22:30N 05°07' W 000°27'5 9.6
2018-Aug-11 22:00N 05°10' W 000°23'5 9.6
2018-Aug-11 21:30N 05°12' W 000°19'5 9.4
2018-Aug-11 20:57N 05°15' W 000°14'4 9.3
2018-Aug-11 20:30N 05°17' W 000°11'5 9.3
2018-Aug-11 20:00N 05°20' W 000°07'5 9.4
2018-Aug-11 19:30N 05°23' W 000°03'5 9.5
2018-Aug-11 19:00N 05°26' E 000°00'5 9.2
2018-Aug-11 18:30N 05°30' E 000°02'5 9.6
2018-Aug-11 18:00N 05°35' E 000°03'3 6.6
2018-Aug-11 17:30N 05°38' E 000°01'0 1.0
2018-Aug-11 17:00N 05°38' E 000°01'0 0.0
2018-Aug-11 16:30N 05°38' E 000°01'0 0.0
2018-Aug-11 16:00N 05°38' E 000°01'0 0.0
2018-Aug-11 15:30N 05°38' E 000°01'0 0.0
2018-Aug-11 15:00N 05°38' E 000°01'0 0.0
2018-Aug-11 14:30N 05°38' E 000°01'0 0.0
2018-Aug-11 14:00N 05°38' E 000°01'0 0.0
2018-Aug-11 13:30N 05°38' E 000°01'0 0.0
2018-Aug-11 13:00N 05°38' E 000°01'0 0.0
2018-Aug-11 12:30N 05°38' E 000°01'0 0.0
2018-Aug-11 12:00N 05°38' E 000°01'0 0.0
2018-Aug-11 11:30N 05°38' E 000°01'0 0.0
2018-Aug-11 11:00N 05°38' E 000°01'0 0.0
2018-Aug-11 10:30N 05°38' E 000°01'0 0.0
2018-Aug-11 10:00N 05°38' E 000°01'0 0.0
2018-Aug-11 09:30N 05°38' E 000°01'0 0.0
2018-Aug-11 09:00N 05°38' E 000°01'0 0.0
2018-Aug-11 08:30N 05°38' E 000°01'0 0.0
2018-Aug-11 08:00N 05°38' E 000°01'0 0.0
2018-Aug-11 07:30N 05°38' E 000°01'0 0.0
2018-Aug-11 07:00N 05°38' E 000°01'0 0.0
2018-Aug-11 06:30N 05°38' E 000°01'0 0.0
2018-Aug-11 06:00N 05°38' E 000°01'0 0.0
2018-Aug-11 05:30N 05°38' E 000°01'0 0.0
2018-Aug-11 05:00N 05°38' E 000°01'0 0.0
2018-Aug-11 04:30N 05°38' E 000°01'0 0.0
2018-Aug-11 04:00N 05°38' E 000°01'0 0.0
2018-Aug-11 03:30N 05°38' E 000°01'0 0.0
2018-Aug-11 03:00N 05°38' E 000°01'0 0.0
2018-Aug-11 02:30N 05°38' E 000°01'0 0.0
2018-Aug-11 02:00N 05°38' E 000°01'0 0.0
2018-Aug-11 01:30N 05°38' E 000°01'0 0.0
2018-Aug-11 01:00N 05°38' E 000°01'0 0.0
2018-Aug-11 00:30N 05°38' E 000°01'0 0.0
2018-Aug-11 00:00N 05°38' E 000°01'0 0.0
2018-Aug-10 23:30N 05°38' E 000°01'0 0.0
2018-Aug-10 23:00N 05°38' E 000°01'0 0.0
2018-Aug-10 22:30N 05°38' E 000°01'0 0.0
2018-Aug-10 22:00N 05°38' E 000°01'0 0.0
2018-Aug-10 21:30N 05°38' E 000°01'0 0.0
2018-Aug-10 21:00N 05°38' E 000°01'0 0.0
2018-Aug-10 20:30N 05°38' E 000°01'0 0.0
2018-Aug-10 20:00N 05°38' E 000°01'0 0.0
2018-Aug-10 19:30N 05°38' E 000°01'0 0.0
2018-Aug-10 19:00N 05°38' E 000°01'0 0.0
2018-Aug-10 18:30N 05°38' E 000°01'0 0.0
2018-Aug-10 18:00N 05°38' E 000°01'0 0.0
2018-Aug-10 17:30N 05°38' E 000°01'0 0.0
2018-Aug-10 17:00N 05°38' E 000°01'0 0.0
2018-Aug-10 16:30N 05°38' E 000°01'0 0.0
2018-Aug-10 15:24N 05°38' E 000°01'0 0.0
2018-Aug-10 15:00N 05°38' E 000°01'0 0.0
2018-Aug-10 14:30N 05°38' E 000°01'0 0.0
2018-Aug-10 14:00N 05°38' E 000°01'0 0.0
2018-Aug-10 13:30N 05°38' E 000°01'0 0.0
2018-Aug-10 13:00N 05°38' E 000°01'0 0.0
2018-Aug-10 12:27N 05°38' E 000°01'0 0.0
2018-Aug-10 12:00N 05°38' E 000°01'0 0.0
2018-Aug-10 11:30N 05°38' E 000°01'0 0.0
2018-Aug-10 11:00N 05°38' E 000°01'0 0.0
2018-Aug-10 10:30N 05°38' E 000°01'0 0.0
2018-Aug-10 10:00N 05°38' E 000°01'0 0.0
2018-Aug-10 09:30N 05°38' E 000°01'0 0.0
2018-Aug-10 08:57N 05°38' E 000°01'0 0.0
2018-Aug-10 08:30N 05°38' E 000°01'0 0.0
2018-Aug-10 08:00N 05°38' E 000°01'0 0.0
2018-Aug-10 07:30N 05°38' E 000°01'0 0.0
2018-Aug-10 07:00N 05°38' E 000°01'0 0.0
2018-Aug-10 06:30N 05°38' E 000°01'0 0.0
2018-Aug-10 06:00N 05°38' E 000°01'0 0.0
2018-Aug-10 05:30N 05°38' E 000°01'0 0.0
2018-Aug-10 05:00N 05°38' E 000°01'0 0.0
2018-Aug-10 04:30N 05°38' E 000°01'0 0.0
2018-Aug-10 04:00N 05°38' E 000°01'0 0.0
2018-Aug-10 03:30N 05°38' E 000°01'0 0.0
2018-Aug-10 03:00N 05°38' E 000°01'0 0.0
2018-Aug-10 02:30N 05°38' E 000°01'0 0.0
2018-Aug-10 02:00N 05°38' E 000°01'0 0.0
2018-Aug-10 01:30N 05°38' E 000°01'0 0.0
2018-Aug-10 01:00N 05°38' E 000°01'0 0.0
2018-Aug-10 00:30N 05°38' E 000°01'0 0.0
2018-Aug-10 00:00N 05°38' E 000°01'0 0.0
2018-Aug-09 23:30N 05°38' E 000°01'0 0.0
2018-Aug-09 23:00N 05°38' E 000°01'0 0.0
2018-Aug-09 22:30N 05°38' E 000°01'0 0.0
2018-Aug-09 22:00N 05°38' E 000°01'0 0.0
2018-Aug-09 21:30N 05°38' E 000°01'0 0.0
2018-Aug-09 21:00N 05°38' E 000°01'0 0.0
2018-Aug-09 20:30N 05°38' E 000°01'0 0.0
2018-Aug-09 20:00N 05°38' E 000°01'0 0.3
2018-Aug-09 19:30N 05°38' E 000°01'2 3.8
2018-Aug-09 19:01N 05°38' E 000°03'2 3.5
2018-Aug-09 18:31N 05°36' E 000°03'0 0.9
2018-Aug-09 17:58N 05°36' E 000°03'3 6.2
2018-Aug-09 17:31N 05°33' E 000°03'611.5
2018-Aug-09 17:01N 05°28' E 000°01'612.3
2018-Aug-09 16:31N 05°24' W 000°04'612.3
2018-Aug-09 16:01N 05°21' W 000°09'612.4
2018-Aug-09 15:30N 05°17' W 000°14'612.5
2018-Aug-09 15:01N 05°14' W 000°20'612.6
2018-Aug-09 14:31N 05°10' W 000°25'612.4
2018-Aug-09 14:01N 05°06' W 000°30'612.4
2018-Aug-09 13:31N 05°03' W 000°35'712.4
2018-Aug-09 12:57N 04°59' W 000°41'512.1
2018-Aug-09 12:31N 04°58' W 000°46'612.0
2018-Aug-09 12:01N 04°57' W 000°52'  
Track history (hours):
 
Tides and Currents Weather Stations Pressure Air Temp Water Temp Dewpoint Dewpoint Depression Visibility Wind Speed Wind Dir Waves Ship Positions

Globetrotter

Last reported at 2018-Aug-12 02:28 UTC. Time now 2018-Aug-21 03:56 UTC.
Position N 04°52' W 001°02'.
Warning: this ship's position is 9 days out of date.

Length 187 m; draft 6.4 m.

Type: Cargo ship. MMSI: 256911000.

Date/timePositionNaut miles runAvg speedWind from/ knotsBaromVisibWave heightAir tempDewpointWater temp
2018-Aug-12 02:28N 04°52' W 001°02'4 9.8
2018-Aug-12 02:00N 04°53' W 000°57'6 9.9
2018-Aug-12 01:25N 04°55' W 000°52'510.0
2018-Aug-12 00:55N 04°57' W 000°47'7 9.9
2018-Aug-12 00:15N 04°60' W 000°41'7 8.7
2018-Aug-11 23:25N 05°03' W 000°35'5 9.7
2018-Aug-11 22:54N 05°05' W 000°30'4 9.6
2018-Aug-11 22:30N 05°07' W 000°27'5 9.6
2018-Aug-11 22:00N 05°10' W 000°23'5 9.6
2018-Aug-11 21:30N 05°12' W 000°19'5 9.4
2018-Aug-11 20:57N 05°15' W 000°14'4 9.3
2018-Aug-11 20:30N 05°17' W 000°11'5 9.3
2018-Aug-11 20:00N 05°20' W 000°07'5 9.4
2018-Aug-11 19:30N 05°23' W 000°03'5 9.5
2018-Aug-11 19:00N 05°26' E 000°00'5 9.2
2018-Aug-11 18:30N 05°30' E 000°02'5 9.6
2018-Aug-11 18:00N 05°35' E 000°03'3 6.6
2018-Aug-11 17:30N 05°38' E 000°01'0 1.0
2018-Aug-11 17:00N 05°38' E 000°01'0 0.0
2018-Aug-11 16:30N 05°38' E 000°01'0 0.0
2018-Aug-11 16:00N 05°38' E 000°01'0 0.0
2018-Aug-11 15:30N 05°38' E 000°01'0 0.0
2018-Aug-11 15:00N 05°38' E 000°01'0 0.0
2018-Aug-11 14:30N 05°38' E 000°01'0 0.0
2018-Aug-11 14:00N 05°38' E 000°01'0 0.0
2018-Aug-11 13:30N 05°38' E 000°01'0 0.0
2018-Aug-11 13:00N 05°38' E 000°01'0 0.0
2018-Aug-11 12:30N 05°38' E 000°01'0 0.0
2018-Aug-11 12:00N 05°38' E 000°01'0 0.0
2018-Aug-11 11:30N 05°38' E 000°01'0 0.0
2018-Aug-11 11:00N 05°38' E 000°01'0 0.0
2018-Aug-11 10:30N 05°38' E 000°01'0 0.0
2018-Aug-11 10:00N 05°38' E 000°01'0 0.0
2018-Aug-11 09:30N 05°38' E 000°01'0 0.0
2018-Aug-11 09:00N 05°38' E 000°01'0 0.0
2018-Aug-11 08:30N 05°38' E 000°01'0 0.0
2018-Aug-11 08:00N 05°38' E 000°01'0 0.0
2018-Aug-11 07:30N 05°38' E 000°01'0 0.0
2018-Aug-11 07:00N 05°38' E 000°01'0 0.0
2018-Aug-11 06:30N 05°38' E 000°01'0 0.0
2018-Aug-11 06:00N 05°38' E 000°01'0 0.0
2018-Aug-11 05:30N 05°38' E 000°01'0 0.0
2018-Aug-11 05:00N 05°38' E 000°01'0 0.0
2018-Aug-11 04:30N 05°38' E 000°01'0 0.0
2018-Aug-11 04:00N 05°38' E 000°01'0 0.0
2018-Aug-11 03:30N 05°38' E 000°01'0 0.0
2018-Aug-11 03:00N 05°38' E 000°01'0 0.0
2018-Aug-11 02:30N 05°38' E 000°01'0 0.0
2018-Aug-11 02:00N 05°38' E 000°01'0 0.0
2018-Aug-11 01:30N 05°38' E 000°01'0 0.0
2018-Aug-11 01:00N 05°38' E 000°01'0 0.0
2018-Aug-11 00:30N 05°38' E 000°01'0 0.0
2018-Aug-11 00:00N 05°38' E 000°01'0 0.0
2018-Aug-10 23:30N 05°38' E 000°01'0 0.0
2018-Aug-10 23:00N 05°38' E 000°01'0 0.0
2018-Aug-10 22:30N 05°38' E 000°01'0 0.0
2018-Aug-10 22:00N 05°38' E 000°01'0 0.0
2018-Aug-10 21:30N 05°38' E 000°01'0 0.0
2018-Aug-10 21:00N 05°38' E 000°01'0 0.0
2018-Aug-10 20:30N 05°38' E 000°01'0 0.0
2018-Aug-10 20:00N 05°38' E 000°01'0 0.0
2018-Aug-10 19:30N 05°38' E 000°01'0 0.0
2018-Aug-10 19:00N 05°38' E 000°01'0 0.0
2018-Aug-10 18:30N 05°38' E 000°01'0 0.0
2018-Aug-10 18:00N 05°38' E 000°01'0 0.0
2018-Aug-10 17:30N 05°38' E 000°01'0 0.0
2018-Aug-10 17:00N 05°38' E 000°01'0 0.0
2018-Aug-10 16:30N 05°38' E 000°01'0 0.0
2018-Aug-10 15:24N 05°38' E 000°01'0 0.0
2018-Aug-10 15:00N 05°38' E 000°01'0 0.0
2018-Aug-10 14:30N 05°38' E 000°01'0 0.0
2018-Aug-10 14:00N 05°38' E 000°01'0 0.0
2018-Aug-10 13:30N 05°38' E 000°01'0 0.0
2018-Aug-10 13:00N 05°38' E 000°01'0 0.0
2018-Aug-10 12:27N 05°38' E 000°01'0 0.0
2018-Aug-10 12:00N 05°38' E 000°01'0 0.0
2018-Aug-10 11:30N 05°38' E 000°01'0 0.0
2018-Aug-10 11:00N 05°38' E 000°01'0 0.0
2018-Aug-10 10:30N 05°38' E 000°01'0 0.0
2018-Aug-10 10:00N 05°38' E 000°01'0 0.0
2018-Aug-10 09:30N 05°38' E 000°01'0 0.0
2018-Aug-10 08:57N 05°38' E 000°01'0 0.0
2018-Aug-10 08:30N 05°38' E 000°01'0 0.0
2018-Aug-10 08:00N 05°38' E 000°01'0 0.0
2018-Aug-10 07:30N 05°38' E 000°01'0 0.0
2018-Aug-10 07:00N 05°38' E 000°01'0 0.0
2018-Aug-10 06:30N 05°38' E 000°01'0 0.0
2018-Aug-10 06:00N 05°38' E 000°01'0 0.0
2018-Aug-10 05:30N 05°38' E 000°01'0 0.0
2018-Aug-10 05:00N 05°38' E 000°01'0 0.0
2018-Aug-10 04:30N 05°38' E 000°01'0 0.0
2018-Aug-10 04:00N 05°38' E 000°01'0 0.0
2018-Aug-10 03:30N 05°38' E 000°01'0 0.0
2018-Aug-10 03:00N 05°38' E 000°01'0 0.0
2018-Aug-10 02:30N 05°38' E 000°01'0 0.0
2018-Aug-10 02:00N 05°38' E 000°01'0 0.0
2018-Aug-10 01:30N 05°38' E 000°01'0 0.0
2018-Aug-10 01:00N 05°38' E 000°01'0 0.0
2018-Aug-10 00:30N 05°38' E 000°01'0 0.0
2018-Aug-10 00:00N 05°38' E 000°01'0 0.0
2018-Aug-09 23:30N 05°38' E 000°01'0 0.0
2018-Aug-09 23:00N 05°38' E 000°01'0 0.0
2018-Aug-09 22:30N 05°38' E 000°01'0 0.0
2018-Aug-09 22:00N 05°38' E 000°01'0 0.0
2018-Aug-09 21:30N 05°38' E 000°01'0 0.0
2018-Aug-09 21:00N 05°38' E 000°01'0 0.0
2018-Aug-09 20:30N 05°38' E 000°01'0 0.0
2018-Aug-09 20:00N 05°38' E 000°01'0 0.3
2018-Aug-09 19:30N 05°38' E 000°01'2 3.8
2018-Aug-09 19:01N 05°38' E 000°03'2 3.5
2018-Aug-09 18:31N 05°36' E 000°03'0 0.9
2018-Aug-09 17:58N 05°36' E 000°03'3 6.2
2018-Aug-09 17:31N 05°33' E 000°03'611.5
2018-Aug-09 17:01N 05°28' E 000°01'612.3
2018-Aug-09 16:31N 05°24' W 000°04'612.3
2018-Aug-09 16:01N 05°21' W 000°09'612.4
2018-Aug-09 15:30N 05°17' W 000°14'612.5
2018-Aug-09 15:01N 05°14' W 000°20'612.6
2018-Aug-09 14:31N 05°10' W 000°25'612.4
2018-Aug-09 14:01N 05°06' W 000°30'612.4
2018-Aug-09 13:31N 05°03' W 000°35'712.4
2018-Aug-09 12:57N 04°59' W 000°41'512.1
2018-Aug-09 12:31N 04°58' W 000°46'612.0
2018-Aug-09 12:01N 04°57' W 000°52'  

Dump ship's entire track history